Time;durP1;ratioP1;P1;durP2;ratioP2;P2;SDS_P1;SDS_P2;PMS_P1;PMS_P2;Temp;Humidity;BMP_temperature;BMP_pressure;BME280_temperature;BME280_humidity;BME280_pressure;Samples;Min_cycle;Max_cycle;Signal;HPM_P1;HPM_P2
2022/07/29 00:01:08;;;;;;;6.95;2.70;;;;;;;22.87;37.06;101598.25;5029505;28;96951;-67
2022/07/29 00:03:34;;;;;;;3.47;2.03;;;;;;;22.74;37.52;101587.50;5032529;28;102034;-67
2022/07/29 00:06:01;;;;;;;6.82;2.35;;;;;;;22.78;37.43;101593.53;5032226;28;99628;-68
2022/07/29 00:08:27;;;;;;;7.50;2.92;;;;;;;22.76;37.47;101596.34;5032454;28;96861;-68
2022/07/29 00:10:55;;;;;;;7.40;2.50;;;;;;;22.77;37.69;101597.22;5032739;27;96902;-68
2022/07/29 00:13:22;;;;;;;13.90;3.65;;;;;;;22.74;37.57;101595.59;5032639;28;98232;-67
2022/07/29 00:15:48;;;;;;;9.07;3.13;;;;;;;22.78;37.73;101596.22;5032978;27;99266;-68
2022/07/29 00:18:15;;;;;;;7.50;3.00;;;;;;;22.72;37.81;101604.72;5032807;27;96813;-68
2022/07/29 00:20:41;;;;;;;8.50;2.85;;;;;;;22.75;37.82;101594.63;5030000;27;97701;-68
2022/07/29 00:23:08;;;;;;;6.00;2.63;;;;;;;22.73;37.98;101601.09;5031778;28;99032;-68
2022/07/29 00:25:34;;;;;;;5.47;3.03;;;;;;;22.64;38.19;101589.97;5031243;27;99626;-67
2022/07/29 00:28:02;;;;;;;10.23;2.78;;;;;;;22.75;38.07;101589.25;5030217;28;97096;-68
2022/07/29 00:30:29;;;;;;;6.85;2.67;;;;;;;22.58;38.50;101576.94;5027940;27;98748;-68
2022/07/29 00:32:56;;;;;;;4.80;2.80;;;;;;;22.62;38.47;101581.16;5019943;27;98920;-67
2022/07/29 00:38:06;;;;;;;9.35;3.38;;;;;;;22.57;38.64;101579.78;5029895;28;96830;-67
2022/07/29 00:40:33;;;;;;;7.30;3.30;;;;;;;22.53;38.86;101579.13;5032123;27;96881;-67
2022/07/29 00:43:01;;;;;;;11.30;3.05;;;;;;;22.47;38.87;101582.25;5036556;27;98216;-66
2022/07/29 00:45:29;;;;;;;8.20;3.13;;;;;;;22.46;38.94;101575.16;5032938;28;99221;-67
2022/07/29 00:47:56;;;;;;;7.53;2.90;;;;;;;22.35;39.35;101576.91;5030966;28;97031;-68
2022/07/29 00:50:23;;;;;;;9.25;3.03;;;;;;;22.40;39.04;101583.66;5032569;27;96898;-68
2022/07/29 00:52:52;;;;;;;7.45;3.13;;;;;;;22.36;39.25;101584.00;5029990;27;97806;-67
2022/07/29 00:55:18;;;;;;;4.95;2.92;;;;;;;22.36;39.31;101582.19;5030486;28;100563;-68
2022/07/29 00:57:45;;;;;;;5.97;3.00;;;;;;;22.32;39.47;101571.75;5033238;27;96755;-67
2022/07/29 01:00:15;;;;;;;8.25;3.97;;;;;;;22.30;39.68;101571.84;5031998;27;96851;-67
2022/07/29 01:02:42;;;;;;;10.60;3.55;;;;;;;22.39;39.36;101565.78;5031700;27;97766;-68
2022/07/29 01:05:09;;;;;;;10.50;3.40;;;;;;;22.30;39.47;101571.00;5032135;28;99508;-68
2022/07/29 01:07:37;;;;;;;6.38;3.10;;;;;;;22.12;40.09;101576.69;5032073;28;96978;-67
2022/07/29 01:10:04;;;;;;;7.22;3.53;;;;;;;22.24;39.85;101559.69;5031940;28;96821;-69
2022/07/29 01:12:33;;;;;;;7.10;2.83;;;;;;;22.23;39.91;101565.19;5026074;28;99447;-68
2022/07/29 01:15:01;;;;;;;7.97;3.33;;;;;;;22.09;40.15;101565.28;5032046;28;99755;-67
2022/07/29 01:17:33;;;;;;;9.85;3.40;;;;;;;22.17;40.05;101561.09;5030805;28;97891;-67
2022/07/29 01:20:07;;;;;;;8.63;3.35;;;;;;;22.09;40.42;101562.59;5032981;27;97193;-68
2022/07/29 01:22:54;;;;;;;5.53;2.80;;;;;;;22.19;40.27;101559.13;5030528;28;99050;-68
2022/07/29 01:25:59;;;;;;;9.85;3.40;;;;;;;22.11;40.51;101552.59;5031525;28;99189;-68
2022/07/29 01:28:59;;;;;;;6.90;3.13;;;;;;;22.05;40.62;101550.34;5028109;28;96943;-68
2022/07/29 01:31:32;;;;;;;7.88;3.10;;;;;;;22.01;40.73;101544.31;5029537;27;96852;-68
2022/07/29 01:34:02;;;;;;;5.07;2.85;;;;;;;22.10;40.21;101537.41;5032073;28;97804;-67
2022/07/29 01:36:33;;;;;;;6.72;3.10;;;;;;;22.10;40.40;101529.34;5031274;28;97587;-68
2022/07/29 01:39:06;;;;;;;6.78;2.70;;;;;;;22.08;40.79;101533.97;5032080;28;97209;-67
2022/07/29 01:41:35;;;;;;;11.68;3.58;;;;;;;22.00;40.76;101521.03;5029620;28;97124;-70
2022/07/29 01:44:12;;;;;;;7.90;3.13;;;;;;;21.99;41.16;101510.41;5031473;28;98988;-67
2022/07/29 01:46:42;;;;;;;9.73;3.20;;;;;;;22.04;40.68;101501.03;5027557;28;98732;-67
2022/07/29 01:49:12;;;;;;;9.75;3.17;;;;;;;21.87;41.16;101494.13;5031516;28;97242;-68
2022/07/29 01:51:44;;;;;;;13.63;3.55;;;;;;;21.94;40.97;101483.78;5027548;28;97237;-68
2022/07/29 01:54:15;;;;;;;7.57;3.47;;;;;;;21.88;41.08;101495.84;5031228;28;99543;-68
2022/07/29 01:56:44;;;;;;;5.85;2.65;;;;;;;21.80;41.08;101489.28;5031919;28;98904;-67
2022/07/29 01:59:12;;;;;;;8.05;2.90;;;;;;;21.87;41.06;101488.75;5031610;28;96873;-67
2022/07/29 02:01:41;;;;;;;6.85;2.88;;;;;;;21.84;41.18;101485.41;5025035;28;97075;-67
2022/07/29 02:04:11;;;;;;;5.88;3.03;;;;;;;21.80;40.93;101482.06;5030209;27;99008;-66
2022/07/29 02:06:41;;;;;;;4.80;2.70;;;;;;;21.78;41.33;101477.78;5030241;28;98843;-67
2022/07/29 02:09:10;;;;;;;5.85;3.00;;;;;;;21.69;41.26;101486.50;5030940;28;96760;-67
2022/07/29 02:11:38;;;;;;;6.70;3.17;;;;;;;21.56;41.73;101474.88;5028614;28;97559;-66
2022/07/29 02:14:08;;;;;;;5.90;3.08;;;;;;;21.71;41.56;101490.81;5030107;28;98986;-68
2022/07/29 02:16:42;;;;;;;8.25;2.60;;;;;;;21.53;42.01;101494.75;5029375;28;98810;-67
2022/07/29 02:19:10;;;;;;;5.03;2.33;;;;;;;21.51;41.78;101491.34;5029904;28;97391;-68
2022/07/29 02:21:37;;;;;;;5.65;3.00;;;;;;;21.68;41.62;101492.84;5027653;28;96802;-68
2022/07/29 02:24:06;;;;;;;7.57;2.88;;;;;;;21.66;41.49;101498.31;5030686;28;99583;-68
2022/07/29 02:26:34;;;;;;;6.97;2.42;;;;;;;21.62;41.59;101502.19;5030693;28;99019;-69
2022/07/29 02:29:02;;;;;;;6.35;2.45;;;;;;;21.60;41.68;101495.19;5029734;27;96819;-67
2022/07/29 02:31:33;;;;;;;8.57;2.63;;;;;;;21.58;41.99;101502.53;5030379;28;97207;-68
2022/07/29 02:34:03;;;;;;;6.20;2.95;;;;;;;21.59;41.82;101494.38;5029118;28;98969;-68
2022/07/29 02:36:30;;;;;;;7.65;3.10;;;;;;;21.53;42.07;101505.50;5030085;28;98842;-67
2022/07/29 02:39:00;;;;;;;5.50;2.35;;;;;;;21.50;42.03;101504.88;5030324;28;96929;-67
2022/07/29 02:41:29;;;;;;;6.45;2.72;;;;;;;21.57;41.97;101506.19;5027621;28;96997;-68
2022/07/29 02:43:57;;;;;;;5.70;2.05;;;;;;;21.60;41.97;101496.06;5031238;28;99213;-71
2022/07/29 02:46:30;;;;;;;8.57;2.90;;;;;;;21.49;41.89;101509.38;5029389;28;99178;-70
2022/07/29 02:49:09;;;;;;;6.88;2.67;;;;;;;21.52;41.80;101502.94;5029717;28;98081;-70
2022/07/29 02:51:47;;;;;;;6.40;2.60;;;;;;;21.65;42.00;101499.31;5023939;28;96724;-71
2022/07/29 02:54:26;;;;;;;8.73;3.05;;;;;;;21.55;41.90;101500.91;5029426;28;99201;-70
2022/07/29 02:56:55;;;;;;;6.00;2.70;;;;;;;21.60;41.83;101506.81;5030737;28;99320;-70
2022/07/29 02:59:27;;;;;;;11.98;3.10;;;;;;;21.73;41.75;101499.59;5030014;27;96777;-70
2022/07/29 03:01:56;;;;;;;10.20;2.80;;;;;;;21.59;41.92;101494.38;5029796;27;96771;-70
2022/07/29 03:04:25;;;;;;;5.88;2.45;;;;;;;21.66;41.81;101494.78;5029867;28;100479;-70
2022/07/29 03:06:53;;;;;;;4.63;2.25;;;;;;;21.61;41.96;101495.09;5030160;28;99357;-70
2022/07/29 03:09:21;;;;;;;7.90;2.50;;;;;;;21.65;41.93;101502.00;5029262;28;97645;-71
2022/07/29 03:11:48;;;;;;;8.25;3.03;;;;;;;21.63;41.72;101492.31;5028834;27;96818;-70
2022/07/29 03:14:16;;;;;;;8.30;3.10;;;;;;;21.65;41.66;101493.94;5030718;28;98910;-70
2022/07/29 03:16:42;;;;;;;8.48;2.30;;;;;;;21.69;41.72;101495.41;5028414;28;99429;-70
2022/07/29 03:19:09;;;;;;;8.45;2.75;;;;;;;21.77;41.42;101492.19;5029707;27;97209;-70
2022/07/29 03:21:37;;;;;;;10.07;2.58;;;;;;;21.72;41.63;101495.22;5025043;28;97094;-69
2022/07/29 03:24:03;;;;;;;7.13;2.90;;;;;;;21.70;41.63;101481.00;5027081;27;97858;-70
2022/07/29 03:26:30;;;;;;;14.63;3.40;;;;;;;21.75;41.59;101478.84;5029881;28;98949;-70
2022/07/29 03:28:56;;;;;;;5.55;2.63;;;;;;;21.60;41.86;101479.06;5029164;28;97123;-70
2022/07/29 03:31:23;;;;;;;5.18;2.55;;;;;;;21.70;41.65;101477.47;5028640;28;97188;-70
2022/07/29 03:33:49;;;;;;;10.57;2.85;;;;;;;21.65;41.64;101483.16;5028653;27;98842;-70
2022/07/29 03:36:15;;;;;;;4.43;2.78;;;;;;;21.62;41.64;101478.00;5028537;28;99251;-71
2022/07/29 03:38:45;;;;;;;5.35;2.42;;;;;;;21.56;41.85;101475.75;5028317;27;96838;-70
2022/07/29 03:41:14;;;;;;;7.25;2.63;;;;;;;21.62;41.88;101472.63;5029023;28;99706;-70
2022/07/29 03:43:42;;;;;;;9.15;2.85;;;;;;;21.61;42.10;101478.97;5029022;28;99327;-69
2022/07/29 03:46:10;;;;;;;8.00;2.50;;;;;;;21.56;41.95;101469.50;5029908;28;99256;-71
2022/07/29 03:48:40;;;;;;;4.13;2.30;;;;;;;21.46;41.93;101467.44;5025606;28;97718;-70
2022/07/29 03:51:06;;;;;;;7.65;3.05;;;;;;;21.54;41.89;101463.34;5028989;27;96912;-70
2022/07/29 03:53:35;;;;;;;4.95;2.60;;;;;;;21.63;41.81;101460.91;5028590;28;98956;-71
2022/07/29 03:56:05;;;;;;;13.10;2.40;;;;;;;21.65;41.45;101461.66;5027817;28;101325;-70
2022/07/29 03:58:32;;;;;;;5.20;2.60;;;;;;;21.66;41.50;101455.28;5024870;28;96778;-70
2022/07/29 04:00:59;;;;;;;7.88;3.15;;;;;;;21.64;41.49;101459.06;5025808;28;97285;-70
2022/07/29 04:03:26;;;;;;;5.45;2.80;;;;;;;21.69;41.33;101460.47;5028164;28;99304;-69
2022/07/29 04:06:00;;;;;;;8.57;2.72;;;;;;;21.76;41.19;101467.13;5030149;27;98835;-70
2022/07/29 04:08:27;;;;;;;8.57;2.97;;;;;;;21.61;41.57;101470.03;5031671;28;96752;-70
2022/07/29 04:10:53;;;;;;;3.88;2.33;;;;;;;21.71;41.44;101477.34;5028544;28;96944;-69
2022/07/29 04:13:21;;;;;;;5.93;2.70;;;;;;;21.92;41.21;101474.97;5031381;27;99038;-69
2022/07/29 04:15:48;;;;;;;9.30;2.50;;;;;;;21.73;40.98;101474.53;5030808;28;99160;-70
2022/07/29 04:18:14;;;;;;;6.28;2.47;;;;;;;21.87;40.82;101472.59;5031234;28;96877;-70
2022/07/29 04:20:40;;;;;;;8.50;2.13;;;;;;;21.96;40.61;101483.72;5032356;28;96854;-70
2022/07/29 04:23:07;;;;;;;6.78;2.45;;;;;;;21.77;40.90;101481.44;5032601;28;100460;-70
2022/07/29 04:25:34;;;;;;;7.28;2.28;;;;;;;21.81;40.87;101486.47;5032272;27;99148;-70
2022/07/29 04:28:03;;;;;;;6.10;2.10;;;;;;;21.71;40.94;101480.06;5030951;28;96866;-69
2022/07/29 04:30:32;;;;;;;7.07;2.72;;;;;;;21.80;40.79;101479.38;5032148;28;96842;-70
2022/07/29 04:33:00;;;;;;;4.43;2.50;;;;;;;22.13;40.38;101477.97;5031382;28;98563;-70
2022/07/29 04:35:27;;;;;;;7.95;2.40;;;;;;;22.05;40.16;101475.00;5033835;28;99900;-70
2022/07/29 04:37:53;;;;;;;8.35;2.70;;;;;;;22.10;39.88;101476.38;5031101;27;96887;-71
2022/07/29 04:40:20;;;;;;;13.80;2.10;;;;;;;22.21;39.91;101479.16;5028506;27;97981;-70
2022/07/29 04:42:46;;;;;;;8.10;2.15;;;;;;;22.31;39.75;101482.03;5030876;27;97901;-70
2022/07/29 04:45:13;;;;;;;8.02;2.83;;;;;;;22.39;39.51;101481.44;5031446;28;98012;-70
2022/07/29 04:47:41;;;;;;;6.97;2.63;;;;;;;22.50;39.49;101492.31;5030719;28;96865;-71
2022/07/29 04:50:08;;;;;;;6.35;2.67;;;;;;;22.39;39.33;101485.00;5032548;28;96891;-70
2022/07/29 04:52:35;;;;;;;6.32;2.42;;;;;;;22.56;39.03;101486.47;5031380;27;99884;-70
2022/07/29 04:55:01;;;;;;;5.82;2.60;;;;;;;22.74;38.81;101492.34;5031843;28;99629;-70
2022/07/29 04:57:28;;;;;;;6.55;2.50;;;;;;;22.62;38.91;101489.59;5030555;28;98985;-69
2022/07/29 04:59:54;;;;;;;8.25;2.33;;;;;;;22.89;38.64;101493.91;5028604;28;97240;-70
2022/07/29 05:02:21;;;;;;;7.00;2.20;;;;;;;22.80;38.30;101489.19;5030033;28;102192;-71
2022/07/29 05:04:49;;;;;;;10.93;2.72;;;;;;;22.94;38.11;101489.03;5030009;28;98970;-72
2022/07/29 05:07:18;;;;;;;5.20;2.78;;;;;;;23.18;37.99;101484.47;5030499;27;96985;-71
2022/07/29 05:09:44;;;;;;;8.85;2.92;;;;;;;23.34;37.62;101493.09;5028555;27;97786;-71
2022/07/29 05:12:11;;;;;;;6.88;2.38;;;;;;;23.32;37.54;101492.34;5029236;28;99265;-67
2022/07/29 05:14:38;;;;;;;12.45;4.90;;;;;;;23.41;37.39;101488.97;5027963;28;99169;-68
2022/07/29 05:17:04;;;;;;;9.45;2.35;;;;;;;23.52;36.78;101482.75;5030818;27;97171;-68
2022/07/29 05:19:31;;;;;;;7.70;2.78;;;;;;;23.61;36.62;101475.78;5031185;28;98351;-68
2022/07/29 05:21:59;;;;;;;6.70;2.83;;;;;;;23.55;36.81;101481.66;5028586;28;99008;-68
2022/07/29 05:24:26;;;;;;;8.50;2.25;;;;;;;23.38;37.26;101486.47;5027349;28;99466;-68
2022/07/29 05:26:52;;;;;;;11.05;2.63;;;;;;;23.60;37.00;101484.84;5022582;27;97397;-68
2022/07/29 05:29:19;;;;;;;10.20;2.70;;;;;;;23.73;36.76;101483.78;5030480;27;97085;-67
2022/07/29 05:31:45;;;;;;;10.25;2.70;;;;;;;23.71;36.74;101474.94;5030505;27;99003;-67
2022/07/29 05:34:12;;;;;;;8.48;2.25;;;;;;;23.58;36.72;101471.47;5029544;27;99156;-68
2022/07/29 05:36:38;;;;;;;9.13;2.65;;;;;;;23.63;36.74;101474.66;5029959;27;96753;-68
2022/07/29 05:39:06;;;;;;;9.25;2.83;;;;;;;23.69;36.43;101470.66;5032587;28;96865;-67
2022/07/29 05:41:32;;;;;;;6.28;2.35;;;;;;;23.69;36.52;101473.34;5031544;28;99623;-68
2022/07/29 05:43:59;;;;;;;10.05;2.85;;;;;;;23.66;36.91;101463.66;5032824;28;97612;-67
2022/07/29 05:46:25;;;;;;;5.78;2.22;;;;;;;23.77;36.49;101470.88;5031505;28;97256;-68
2022/07/29 05:48:52;;;;;;;11.18;2.45;;;;;;;23.84;36.31;101474.81;5032412;28;96796;-68
2022/07/29 05:51:18;;;;;;;9.63;2.47;;;;;;;23.92;36.32;101480.47;5031181;28;98897;-67
2022/07/29 05:53:45;;;;;;;7.78;2.40;;;;;;;23.66;36.29;101479.84;5031870;28;98855;-67
2022/07/29 05:56:12;;;;;;;10.02;3.20;;;;;;;23.88;36.01;101480.84;5031378;28;96801;-67
2022/07/29 05:58:39;;;;;;;5.30;2.80;;;;;;;24.14;35.53;101475.06;5032084;28;97845;-67
2022/07/29 06:01:06;;;;;;;6.57;2.70;;;;;;;24.36;35.36;101476.03;5031126;28;99549;-67
2022/07/29 06:03:32;;;;;;;12.70;2.75;;;;;;;24.48;35.18;101475.06;5031910;28;98988;-68
2022/07/29 06:05:59;;;;;;;12.73;2.70;;;;;;;24.63;35.12;101487.28;5030918;27;97110;-68
2022/07/29 06:08:25;;;;;;;15.75;2.63;;;;;;;24.63;34.72;101487.28;5029498;28;96912;-67
2022/07/29 06:10:52;;;;;;;10.13;2.40;;;;;;;24.83;34.34;101499.13;5031118;27;98013;-68
2022/07/29 06:13:20;;;;;;;8.95;2.70;;;;;;;25.10;34.39;101486.03;5031838;28;98194;-68
2022/07/29 06:15:46;;;;;;;8.05;2.45;;;;;;;25.20;34.17;101478.88;5030743;28;96754;-68
2022/07/29 06:18:13;;;;;;;7.18;2.20;;;;;;;25.50;33.38;101475.38;5031294;27;97529;-68
2022/07/29 06:20:40;;;;;;;11.98;2.60;;;;;;;25.76;33.19;101465.84;5030937;28;98838;-68
2022/07/29 06:23:06;;;;;;;6.07;2.20;;;;;;;25.80;32.85;101469.13;5031691;28;97527;-68
2022/07/29 06:25:34;;;;;;;9.73;2.40;;;;;;;25.30;33.47;101476.22;5030888;28;96717;-68
2022/07/29 06:28:00;;;;;;;8.05;2.83;;;;;;;25.45;33.33;101474.91;5030693;28;96783;-69
2022/07/29 06:30:29;;;;;;;9.68;2.97;;;;;;;25.66;33.25;101477.63;5030155;28;100487;-68
2022/07/29 06:33:01;;;;;;;8.13;3.38;;;;;;;25.49;33.51;101481.75;5031268;27;99294;-68
2022/07/29 06:35:28;;;;;;;10.80;2.60;;;;;;;25.71;33.45;101468.13;5029234;28;96740;-68
2022/07/29 06:37:54;;;;;;;6.68;2.05;;;;;;;25.55;33.27;101470.41;5031205;27;97111;-68
2022/07/29 06:43:05;;;;;;;8.50;2.55;;;;;;;25.62;33.58;101471.63;5031719;28;97213;-68
2022/07/29 06:45:35;;;;;;;11.00;3.08;;;;;;;25.65;33.59;101470.50;5030871;28;97308;-68
2022/07/29 06:48:02;;;;;;;10.52;2.65;;;;;;;25.64;33.21;101474.19;5019984;27;97490;-68
2022/07/29 06:50:28;;;;;;;5.63;2.22;;;;;;;25.65;33.49;101479.47;5030213;27;99205;-67
2022/07/29 06:52:55;;;;;;;13.73;2.53;;;;;;;25.27;33.69;101479.19;5030730;27;99217;-67
2022/07/29 06:55:21;;;;;;;5.63;1.98;;;;;;;25.58;33.45;101486.41;5039508;27;97186;-68
2022/07/29 06:57:48;;;;;;;5.70;1.65;;;;;;;25.58;33.37;101486.41;5031673;27;98067;-68
2022/07/29 07:00:15;;;;;;;8.00;2.50;;;;;;;25.65;33.04;101484.03;5024082;28;99544;-68
2022/07/29 07:02:43;;;;;;;8.90;2.35;;;;;;;25.77;33.28;101489.22;5030993;28;99142;-68
2022/07/29 07:05:11;;;;;;;8.93;2.40;;;;;;;25.95;32.61;101489.44;5030613;27;97161;-69
2022/07/29 07:07:38;;;;;;;20.92;3.38;;;;;;;26.15;32.91;101490.38;5030089;28;96861;-68
2022/07/29 07:10:05;;;;;;;61.28;5.88;;;;;;;26.45;32.30;101498.50;5029867;28;97614;-68
2022/07/29 07:12:32;;;;;;;24.67;3.38;;;;;;;26.64;32.14;101488.72;5030594;28;101453;-69
2022/07/29 07:14:58;;;;;;;10.50;2.45;;;;;;;27.25;31.09;101490.19;5030974;28;96873;-68
2022/07/29 07:17:25;;;;;;;14.30;3.00;;;;;;;27.53;30.80;101484.88;5032067;28;96962;-71
2022/07/29 07:19:53;;;;;;;9.23;2.42;;;;;;;27.54;30.04;101483.88;5030084;28;98995;-70
2022/07/29 07:22:19;;;;;;;12.23;2.50;;;;;;;27.61;30.34;101482.31;5030996;27;99218;-70
2022/07/29 07:24:46;;;;;;;9.88;2.95;;;;;;;27.66;30.00;101482.72;5031423;28;97330;-71
2022/07/29 07:27:12;;;;;;;13.18;3.03;;;;;;;27.53;30.07;101479.47;5030099;27;97054;-71
2022/07/29 07:29:40;;;;;;;6.57;2.58;;;;;;;27.53;30.23;101480.31;5029574;28;98996;-70
2022/07/29 07:32:07;;;;;;;10.32;2.20;;;;;;;27.60;30.19;101476.03;5028330;28;98774;-70
2022/07/29 07:34:33;;;;;;;10.52;2.53;;;;;;;27.82;29.71;101479.41;5030909;28;96716;-71
2022/07/29 07:37:04;;;;;;;9.63;2.03;;;;;;;27.70;29.93;101474.13;5029531;28;97719;-71
2022/07/29 07:39:31;;;;;;;8.48;2.38;;;;;;;28.16;29.46;101482.44;5030650;27;98970;-69
2022/07/29 07:41:57;;;;;;;11.50;2.67;;;;;;;28.31;29.02;101478.19;5033079;28;96756;-70
2022/07/29 07:44:24;;;;;;;8.82;2.72;;;;;;;28.57;28.70;101475.59;5033628;28;97190;-70
2022/07/29 07:46:50;;;;;;;7.47;2.05;;;;;;;28.65;28.40;101472.97;5033368;28;97076;-71
2022/07/29 07:49:16;;;;;;;8.80;2.22;;;;;;;28.72;28.00;101474.06;5033952;27;99220;-70
2022/07/29 07:51:43;;;;;;;7.47;2.25;;;;;;;28.52;28.05;101473.34;5032809;28;100640;-70
2022/07/29 07:54:11;;;;;;;7.57;1.80;;;;;;;28.58;28.29;101466.44;5033919;27;97531;-71
2022/07/29 07:56:37;;;;;;;12.93;2.70;;;;;;;28.83;27.71;101471.13;5032620;28;96863;-71
2022/07/29 07:59:03;;;;;;;8.95;2.00;;;;;;;28.83;28.05;101469.28;5033855;27;98717;-70
2022/07/29 08:01:30;;;;;;;7.18;1.92;;;;;;;29.02;27.47;101462.81;5032884;28;99278;-70
2022/07/29 08:03:56;;;;;;;5.93;1.73;;;;;;;29.34;27.37;101458.72;5013755;27;97014;-70
2022/07/29 08:06:24;;;;;;;3.08;1.60;;;;;;;29.26;27.09;101465.75;5028149;27;96877;-72
2022/07/29 08:08:51;;;;;;;8.85;1.58;;;;;;;29.41;26.61;101462.47;5032830;28;99301;-70
2022/07/29 08:11:20;;;;;;;7.55;2.25;;;;;;;29.42;26.46;101465.03;5026848;27;98874;-70
2022/07/29 08:13:47;;;;;;;5.43;1.67;;;;;;;29.46;26.51;101463.72;5039062;27;96919;-70
2022/07/29 08:16:14;;;;;;;7.72;2.20;;;;;;;29.13;26.67;101461.75;5030540;27;97940;-70
2022/07/29 08:18:43;;;;;;;8.02;1.80;;;;;;;29.07;27.09;101456.94;5036580;27;99149;-71
2022/07/29 08:21:10;;;;;;;6.30;1.70;;;;;;;29.20;27.04;101462.81;5027435;28;98862;-70
2022/07/29 08:23:39;;;;;;;6.20;2.22;;;;;;;29.03;26.75;101460.94;5033384;27;96933;-72
2022/07/29 08:26:06;;;;;;;6.75;1.77;;;;;;;28.97;27.08;101451.56;5032508;28;96810;-70
2022/07/29 08:28:33;;;;;;;5.65;1.50;;;;;;;28.86;27.05;101459.97;5031831;28;99331;-70
2022/07/29 08:31:00;;;;;;;10.77;1.65;;;;;;;29.17;26.85;101452.25;5031555;28;99110;-69
2022/07/29 08:33:26;;;;;;;5.88;1.63;;;;;;;29.06;26.56;101450.63;5033808;28;96806;-70
2022/07/29 08:35:53;;;;;;;6.95;1.70;;;;;;;29.44;26.52;101443.13;5033115;28;97789;-71
2022/07/29 08:38:19;;;;;;;9.07;1.60;;;;;;;29.75;26.29;101435.28;5031780;28;99685;-69
2022/07/29 08:40:46;;;;;;;3.88;1.88;;;;;;;29.50;26.38;101437.88;5031867;28;97481;-72
2022/07/29 08:43:13;;;;;;;9.40;1.42;;;;;;;29.76;25.77;101434.28;5032243;27;97140;-71
2022/07/29 08:45:46;;;;;;;5.03;1.40;;;;;;;29.63;25.53;101435.59;5033182;28;97016;-70
2022/07/29 08:48:14;;;;;;;6.80;1.42;;;;;;;29.58;25.24;101439.81;5032675;27;101757;-71
2022/07/29 08:50:42;;;;;;;5.07;1.70;;;;;;;29.77;25.17;101438.72;5032644;27;98030;-70
2022/07/29 08:53:12;;;;;;;5.55;1.50;;;;;;;29.73;25.49;101445.53;5033013;27;96788;-71
2022/07/29 08:55:40;;;;;;;8.45;1.60;;;;;;;29.52;26.17;101440.44;5027742;27;97424;-71
2022/07/29 08:58:08;;;;;;;6.18;1.52;;;;;;;29.67;25.82;101433.38;5032302;27;98437;-71
2022/07/29 09:00:36;;;;;;;4.28;1.50;;;;;;;29.26;26.40;101445.84;5032504;28;98812;-72
2022/07/29 09:03:05;;;;;;;3.47;1.48;;;;;;;29.20;25.68;101449.22;5030414;28;96854;-70
2022/07/29 09:05:32;;;;;;;7.93;1.70;;;;;;;29.16;25.69;101445.94;5026270;28;97227;-71
2022/07/29 09:08:00;;;;;;;4.85;1.25;;;;;;;29.11;25.62;101450.16;5029353;27;99553;-70
2022/07/29 09:10:26;;;;;;;6.72;1.75;;;;;;;28.95;25.68;101436.44;5031247;28;98822;-70
2022/07/29 09:12:53;;;;;;;8.57;1.50;;;;;;;29.19;25.86;101445.63;5032429;28;96929;-70
2022/07/29 09:15:19;;;;;;;5.82;2.13;;;;;;;29.50;25.57;101439.75;5032370;27;97148;-70
2022/07/29 09:17:48;;;;;;;4.65;1.80;;;;;;;29.72;25.29;101441.94;5030392;28;99436;-70
2022/07/29 09:20:18;;;;;;;5.47;1.50;;;;;;;29.80;25.11;101439.22;5030638;27;98063;-70
2022/07/29 09:22:48;;;;;;;9.60;1.60;;;;;;;30.33;24.63;101441.69;5031575;28;97316;-70
2022/07/29 09:25:15;;;;;;;6.55;1.50;;;;;;;30.26;24.19;101439.84;5030442;28;97561;-70
2022/07/29 09:27:42;;;;;;;6.90;1.70;;;;;;;30.45;24.09;101436.81;5031080;28;98221;-70
2022/07/29 09:30:11;;;;;;;7.95;1.67;;;;;;;30.33;23.55;101435.41;5030414;27;99005;-71
2022/07/29 09:32:56;;;;;;;4.45;1.65;;;;;;;30.00;23.80;101431.69;5031547;27;96877;-70
2022/07/29 09:35:26;;;;;;;12.85;1.85;;;;;;;29.91;23.89;101430.78;5031946;27;96942;-70
2022/07/29 09:37:53;;;;;;;3.08;1.35;;;;;;;30.03;23.98;101431.38;5030264;28;98446;-70
2022/07/29 09:40:23;;;;;;;5.55;1.40;;;;;;;29.80;23.90;101432.97;5030801;27;97967;-69
2022/07/29 09:42:50;;;;;;;6.13;1.30;;;;;;;29.99;24.18;101435.47;5032123;28;97133;-68
2022/07/29 09:45:28;;;;;;;6.38;1.50;;;;;;;29.71;23.73;101424.75;5031607;28;97065;-69
2022/07/29 09:47:56;;;;;;;4.30;1.30;;;;;;;29.52;23.58;101413.22;5030658;28;99179;-69
2022/07/29 09:50:37;;;;;;;4.10;1.45;;;;;;;29.56;24.45;101428.22;5025365;28;99245;-68
2022/07/29 09:53:03;;;;;;;3.47;1.50;;;;;;;29.86;23.92;101421.41;5030918;28;97134;-68
2022/07/29 09:55:30;;;;;;;7.03;1.98;;;;;;;29.83;24.03;101410.81;5031743;28;96814;-68
2022/07/29 09:58:15;;;;;;;6.28;1.40;;;;;;;30.01;23.56;101411.63;5028149;28;98930;-68
2022/07/29 10:00:43;;;;;;;5.68;1.38;;;;;;;30.35;23.32;101422.47;5029675;28;97668;-68
2022/07/29 10:03:10;;;;;;;6.85;1.25;;;;;;;30.59;23.12;101413.53;5032046;27;96885;-68
2022/07/29 10:05:39;;;;;;;8.48;1.85;;;;;;;30.87;23.24;101412.16;5030507;27;97302;-68
2022/07/29 10:08:05;;;;;;;10.52;1.90;;;;;;;30.63;23.13;101415.75;5030351;27;98383;-68
2022/07/29 10:10:34;;;;;;;2.95;1.60;;;;;;;30.30;23.20;101412.06;5026644;28;98884;-68
2022/07/29 10:13:02;;;;;;;3.15;1.35;;;;;;;30.46;23.05;101403.91;5030498;27;96830;-69
2022/07/29 10:15:32;;;;;;;4.47;1.50;;;;;;;30.58;22.78;101400.91;5031215;27;98125;-68
2022/07/29 10:18:00;;;;;;;6.68;1.80;;;;;;;30.48;22.74;101406.47;5028913;28;98999;-68
2022/07/29 10:20:28;;;;;;;5.95;1.60;;;;;;;30.62;22.32;101405.00;5030282;28;98844;-69
2022/07/29 10:22:56;;;;;;;3.03;1.45;;;;;;;30.97;22.38;101404.69;5030698;28;96865;-68
2022/07/29 10:25:23;;;;;;;6.75;1.58;;;;;;;30.85;21.73;101395.13;5031171;28;96838;-68
2022/07/29 10:27:51;;;;;;;9.55;1.38;;;;;;;30.75;21.90;101400.75;5026356;27;97900;-68
2022/07/29 10:30:19;;;;;;;5.28;1.20;;;;;;;30.76;21.80;101398.88;5027741;27;100514;-68
2022/07/29 10:33:09;;;;;;;5.15;1.30;;;;;;;30.93;21.70;101395.09;5031515;28;96760;-68
2022/07/29 10:35:55;;;;;;;3.50;1.02;;;;;;;31.31;21.59;101392.72;5029238;28;96856;-69
2022/07/29 10:38:34;;;;;;;8.10;1.40;;;;;;;31.55;21.07;101400.88;5029599;28;99030;-69
2022/07/29 10:41:29;;;;;;;10.27;1.50;;;;;;;31.59;21.08;101397.63;5029923;27;97912;-69
2022/07/29 10:43:59;;;;;;;3.83;1.42;;;;;;;32.07;20.79;101401.19;5030296;28;97464;-69
2022/07/29 10:46:26;;;;;;;5.28;1.10;;;;;;;31.90;20.44;101405.88;5029364;28;97635;-69
2022/07/29 10:49:12;;;;;;;9.15;1.50;;;;;;;32.08;20.54;101396.59;5026494;27;98857;-68
2022/07/29 10:51:56;;;;;;;5.53;1.58;;;;;;;31.77;20.33;101394.66;5025110;28;97727;-69
2022/07/29 10:54:49;;;;;;;7.10;1.40;;;;;;;31.69;20.41;101394.72;5029932;28;96832;-68
2022/07/29 10:57:19;;;;;;;6.78;1.60;;;;;;;31.63;20.51;101393.53;5028276;28;98111;-69
2022/07/29 10:59:50;;;;;;;5.45;1.67;;;;;;;31.60;20.62;101393.03;5030064;28;99223;-69
2022/07/29 11:02:48;;;;;;;4.07;1.27;;;;;;;31.56;21.04;101391.66;5027714;28;100941;-69
2022/07/29 11:05:16;;;;;;;4.53;1.30;;;;;;;31.80;20.69;101388.84;5030768;28;97006;-69
2022/07/29 11:08:31;;;;;;;7.57;1.52;;;;;;;31.87;20.50;101389.00;5029998;27;96932;-70
2022/07/29 11:11:40;;;;;;;1.85;1.15;;;;;;;31.38;20.69;101383.66;5028065;28;98763;-69
2022/07/29 11:14:08;;;;;;;4.22;1.40;;;;;;;31.02;21.34;101383.19;5028924;28;99581;-69
2022/07/29 11:17:02;;;;;;;5.78;1.58;;;;;;;30.79;22.07;101382.16;5031326;27;97962;-68
2022/07/29 11:19:41;;;;;;;5.32;1.23;;;;;;;31.08;21.64;101381.66;5033033;28;97019;-70
2022/07/29 11:22:09;;;;;;;4.35;1.40;;;;;;;31.14;21.60;101376.38;5029484;28;99183;-68
2022/07/29 11:24:36;;;;;;;4.00;1.50;;;;;;;31.31;21.76;101368.16;5033112;28;99421;-69
2022/07/29 11:27:13;;;;;;;4.57;1.42;;;;;;;31.24;21.94;101374.28;5032745;27;97218;-69
2022/07/29 11:29:52;;;;;;;5.80;2.20;;;;;;;31.19;21.95;101371.22;5030447;28;97577;-68
2022/07/29 11:32:20;;;;;;;2.92;1.17;;;;;;;31.36;21.68;101376.69;5032984;28;99528;-69
2022/07/29 11:34:48;;;;;;;2.45;1.27;;;;;;;31.31;22.04;101374.44;5033982;27;98943;-68
2022/07/29 11:37:20;;;;;;;6.90;1.52;;;;;;;31.46;21.76;101366.41;5032606;28;97045;-69
2022/07/29 11:40:08;;;;;;;6.57;1.42;;;;;;;31.76;21.64;101375.72;5030409;28;97425;-69